createdAt,value
2023-01-25T00:02:07.984Z,15.77
2023-01-25T00:04:33.087Z,19.17
2023-01-25T00:06:59.446Z,20.98
2023-01-25T00:09:24.941Z,21.10
2023-01-25T00:11:49.563Z,18.20
2023-01-25T00:14:15.032Z,19.90
2023-01-25T00:16:40.291Z,19.13
2023-01-25T00:19:04.873Z,19.48
2023-01-25T00:21:29.929Z,22.67
2023-01-25T00:23:55.958Z,20.50
2023-01-25T00:26:21.327Z,20.40
2023-01-25T00:28:49.859Z,18.75
2023-01-25T00:31:22.805Z,18.87
2023-01-25T00:33:53.675Z,18.45
2023-01-25T00:36:45.876Z,20.15
2023-01-25T00:39:14.507Z,17.63
2023-01-25T00:41:39.508Z,20.45
2023-01-25T00:44:04.337Z,18.55
2023-01-25T00:46:28.834Z,22.17
2023-01-25T00:48:55.900Z,18.05
2023-01-25T00:51:20.427Z,19.35
2023-01-25T00:53:45.233Z,18.75
2023-01-25T00:56:11.262Z,21.42
2023-01-25T00:58:35.969Z,20.27
2023-01-25T01:01:03.501Z,19.42
2023-01-25T01:03:28.175Z,20.83
2023-01-25T01:06:01.786Z,21.25
2023-01-25T01:08:26.595Z,21.10
2023-01-25T01:10:51.032Z,19.75
2023-01-25T01:13:18.188Z,19.02
2023-01-25T01:15:42.639Z,17.98
2023-01-25T01:18:07.287Z,19.08
2023-01-25T01:20:32.055Z,19.25
2023-01-25T01:22:57.124Z,19.27
2023-01-25T01:25:21.576Z,18.88
2023-01-25T01:27:46.369Z,18.90
2023-01-25T01:30:13.690Z,16.42
2023-01-25T01:32:39.383Z,19.02
2023-01-25T01:35:04.473Z,19.73
2023-01-25T01:37:28.934Z,17.92
2023-01-25T01:39:53.934Z,16.90
2023-01-25T01:42:18.613Z,16.33
2023-01-25T01:44:49.022Z,15.90
2023-01-25T01:47:19.389Z,15.90
2023-01-25T01:49:51.652Z,17.30
2023-01-25T01:52:18.573Z,15.90
2023-01-25T01:54:47.317Z,16.05
2023-01-25T01:57:15.651Z,15.52
2023-01-25T01:59:44.834Z,15.75
2023-01-25T02:02:09.653Z,14.68
2023-01-25T02:04:36.793Z,13.73
2023-01-25T02:07:12.015Z,13.82
2023-01-25T02:09:38.131Z,13.75
2023-01-25T02:12:03.173Z,13.90
2023-01-25T02:14:30.483Z,13.77
2023-01-25T02:16:57.929Z,15.35
2023-01-25T02:19:36.644Z,27.38
2023-01-25T02:22:07.956Z,28.48
2023-01-25T02:24:34.503Z,16.73
2023-01-25T02:27:00.945Z,16.75
2023-01-25T02:29:30.354Z,15.48
2023-01-25T02:32:01.464Z,14.60
2023-01-25T02:34:26.176Z,13.27
2023-01-25T02:36:50.777Z,15.90
2023-01-25T02:39:20.295Z,26.80
2023-01-25T02:41:48.821Z,25.92
2023-01-25T02:44:18.405Z,29.25
2023-01-25T02:46:45.142Z,18.77
2023-01-25T02:49:11.591Z,11.02
2023-01-25T02:51:38.036Z,13.90
2023-01-25T02:54:04.075Z,10.57
2023-01-25T02:56:29.879Z,14.15
2023-01-25T02:58:55.509Z,12.57
2023-01-25T03:01:21.850Z,13.02
2023-01-25T03:03:46.427Z,10.35
2023-01-25T03:06:11.540Z,12.88
2023-01-25T03:08:37.836Z,12.85
2023-01-25T03:11:04.992Z,10.02
2023-01-25T03:13:30.596Z,11.18
2023-01-25T03:16:01.155Z,10.05
2023-01-25T03:18:28.160Z,8.57
2023-01-25T03:20:52.893Z,8.93
2023-01-25T03:23:17.650Z,9.68
2023-01-25T03:25:42.277Z,8.93
2023-01-25T03:30:57.237Z,9.80
2023-01-25T03:33:23.033Z,10.73
2023-01-25T03:35:53.596Z,8.38
2023-01-25T03:38:19.891Z,9.98
2023-01-25T03:40:44.791Z,9.00
2023-01-25T03:43:09.465Z,8.93
2023-01-25T03:45:35.014Z,11.50
2023-01-25T03:47:59.951Z,9.30
2023-01-25T03:50:24.408Z,12.55
2023-01-25T03:53:07.290Z,8.23
2023-01-25T03:55:32.095Z,9.45
2023-01-25T03:57:57.532Z,8.43
2023-01-25T04:00:23.975Z,8.85
2023-01-25T04:02:56.589Z,9.13
2023-01-25T04:05:21.321Z,8.27
2023-01-25T04:07:45.945Z,7.93
2023-01-25T04:10:14.237Z,8.85
2023-01-25T04:12:42.573Z,8.85
2023-01-25T04:15:08.999Z,8.70
2023-01-25T04:17:33.797Z,7.15
2023-01-25T04:20:04.159Z,8.70
2023-01-25T04:22:36.551Z,9.68
2023-01-25T04:25:03.109Z,7.90
2023-01-25T04:27:29.885Z,7.90
2023-01-25T04:30:03.200Z,7.70
2023-01-25T04:32:28.794Z,8.45
2023-01-25T04:34:54.780Z,7.82
2023-01-25T04:37:22.072Z,8.02
2023-01-25T04:39:54.140Z,7.32
2023-01-25T04:42:18.897Z,7.78
2023-01-25T04:44:48.517Z,7.32
2023-01-25T04:47:13.557Z,7.53
2023-01-25T04:49:38.202Z,6.97
2023-01-25T04:52:03.018Z,8.20
2023-01-25T04:54:27.679Z,8.77
2023-01-25T04:56:52.290Z,7.90
2023-01-25T04:59:18.402Z,8.00
2023-01-25T05:01:45.647Z,7.15
2023-01-25T05:04:10.247Z,8.27
2023-01-25T05:06:38.435Z,8.48
2023-01-25T05:09:03.754Z,8.40
2023-01-25T05:11:30.405Z,10.73
2023-01-25T05:16:34.833Z,9.13
2023-01-25T05:19:02.401Z,7.85
2023-01-25T05:21:54.523Z,9.80
2023-01-25T05:24:20.821Z,9.07
2023-01-25T05:27:03.441Z,7.72
2023-01-25T05:29:47.801Z,8.35
2023-01-25T05:32:15.376Z,12.48
2023-01-25T05:34:42.136Z,10.57
2023-01-25T05:37:08.813Z,9.98
2023-01-25T05:39:37.292Z,11.20
2023-01-25T05:42:02.267Z,11.15
2023-01-25T05:44:26.997Z,9.88
2023-01-25T05:46:52.522Z,8.82
2023-01-25T05:49:17.451Z,11.88
2023-01-25T05:51:44.011Z,11.90
2023-01-25T05:54:13.564Z,10.32
2023-01-25T05:56:41.951Z,7.93
2023-01-25T05:59:07.062Z,11.23
2023-01-25T06:01:31.923Z,10.50
2023-01-25T06:03:57.346Z,9.60
2023-01-25T06:06:23.817Z,9.70
2023-01-25T06:08:50.406Z,10.25
2023-01-25T06:11:17.498Z,10.07
2023-01-25T06:13:43.429Z,10.30
2023-01-25T06:16:09.269Z,10.55
2023-01-25T06:18:39.873Z,10.68
2023-01-25T06:21:17.325Z,10.60
2023-01-25T06:23:44.924Z,11.23
2023-01-25T06:26:14.316Z,11.18
2023-01-25T06:28:39.909Z,10.93
2023-01-25T06:31:09.114Z,10.82
2023-01-25T06:33:34.072Z,10.68
2023-01-25T06:36:01.783Z,11.80
2023-01-25T06:38:26.869Z,12.80
2023-01-25T06:40:51.262Z,11.52
2023-01-25T06:43:18.136Z,12.23
2023-01-25T06:45:42.677Z,13.73
2023-01-25T06:48:09.006Z,12.32
2023-01-25T06:50:33.510Z,11.93
2023-01-25T06:52:58.649Z,12.68
2023-01-25T06:55:23.698Z,12.60
2023-01-25T06:57:58.551Z,12.98
2023-01-25T07:00:25.286Z,12.70
2023-01-25T07:02:49.806Z,16.13
2023-01-25T07:05:14.591Z,11.30
2023-01-25T07:07:39.564Z,12.48
2023-01-25T07:10:04.837Z,10.48
2023-01-25T07:12:30.908Z,12.57
2023-01-25T07:14:55.458Z,10.95
2023-01-25T07:17:21.559Z,14.20
2023-01-25T07:19:46.027Z,12.57
2023-01-25T07:22:10.862Z,10.18
2023-01-25T07:24:35.424Z,12.07
2023-01-25T07:27:00.754Z,11.68
2023-01-25T07:29:25.640Z,13.35
2023-01-25T07:31:50.283Z,13.35
2023-01-25T07:34:17.128Z,13.75
2023-01-25T07:36:43.774Z,14.00
2023-01-25T07:39:10.352Z,12.63
2023-01-25T07:41:34.904Z,10.82
2023-01-25T07:43:59.594Z,10.57
2023-01-25T07:46:32.664Z,12.43
2023-01-25T07:48:59.058Z,11.70
2023-01-25T07:51:28.588Z,11.77
2023-01-25T07:53:54.595Z,11.13
2023-01-25T07:56:20.325Z,13.75
2023-01-25T07:58:45.912Z,11.95
2023-01-25T08:01:11.163Z,12.00
2023-01-25T08:03:36.010Z,10.68
2023-01-25T08:06:00.769Z,12.45
2023-01-25T08:08:27.661Z,10.93
2023-01-25T08:10:52.645Z,10.95
2023-01-25T08:13:17.094Z,12.93
2023-01-25T08:15:41.721Z,12.70
2023-01-25T08:18:06.508Z,12.23
2023-01-25T08:20:31.131Z,11.75
2023-01-25T08:22:55.762Z,13.20
2023-01-25T08:25:21.901Z,11.90
2023-01-25T08:27:46.697Z,13.38
2023-01-25T08:30:13.105Z,13.20
2023-01-25T08:32:38.237Z,12.70
2023-01-25T08:35:02.917Z,11.40
2023-01-25T08:37:29.740Z,13.23
2023-01-25T08:39:54.263Z,12.45
2023-01-25T08:42:21.535Z,12.98
2023-01-25T08:44:46.042Z,13.77
2023-01-25T08:47:10.947Z,13.65
2023-01-25T08:49:36.267Z,14.48
2023-01-25T08:52:01.084Z,15.00
2023-01-25T08:54:25.730Z,13.50
2023-01-25T08:56:50.809Z,14.80
2023-01-25T08:59:17.300Z,13.23
2023-01-25T09:01:42.054Z,14.10
2023-01-25T09:04:07.075Z,12.98
2023-01-25T09:06:32.085Z,13.13
2023-01-25T09:08:56.888Z,13.35
2023-01-25T09:11:24.196Z,14.05
2023-01-25T09:13:49.831Z,13.23
2023-01-25T09:16:18.369Z,12.40
2023-01-25T09:18:45.004Z,13.27
2023-01-25T09:21:11.548Z,13.02
2023-01-25T09:23:50.276Z,14.90
2023-01-25T09:26:22.119Z,14.18
2023-01-25T09:28:49.838Z,13.00
2023-01-25T09:31:22.346Z,15.10
2023-01-25T09:34:20.691Z,14.23
2023-01-25T09:36:45.837Z,13.98
2023-01-25T09:39:12.414Z,14.73
2023-01-25T09:42:06.573Z,14.13
2023-01-25T09:44:47.358Z,13.48
2023-01-25T09:47:22.383Z,11.93
2023-01-25T09:50:13.065Z,12.57
2023-01-25T09:53:00.651Z,13.88
2023-01-25T09:55:29.218Z,14.38
2023-01-25T09:57:56.868Z,12.00
2023-01-25T10:00:25.747Z,13.05
2023-01-25T10:02:56.963Z,13.13
2023-01-25T10:05:24.938Z,13.25
2023-01-25T10:07:59.588Z,13.23
2023-01-25T10:10:29.597Z,12.43
2023-01-25T10:15:22.564Z,12.63
2023-01-25T10:17:47.472Z,11.97
2023-01-25T10:20:25.946Z,12.35
2023-01-25T10:22:54.666Z,13.55
2023-01-25T10:25:30.610Z,13.20
2023-01-25T10:28:10.244Z,12.27
2023-01-25T10:30:42.666Z,12.65
2023-01-25T10:33:14.699Z,12.65
2023-01-25T10:35:47.220Z,13.88
2023-01-25T10:38:18.488Z,13.60
2023-01-25T10:40:47.624Z,12.63
2023-01-25T10:43:18.140Z,15.23
2023-01-25T10:45:43.245Z,17.38
2023-01-25T10:48:13.504Z,12.75
2023-01-25T10:50:48.429Z,12.75
2023-01-25T10:53:26.650Z,15.00
2023-01-25T10:56:14.045Z,13.20
2023-01-25T10:58:40.058Z,11.77
2023-01-25T11:01:08.242Z,11.82
2023-01-25T11:03:45.863Z,10.75
2023-01-25T11:06:12.473Z,10.73
2023-01-25T11:08:38.438Z,12.27
2023-01-25T11:11:26.581Z,13.20
2023-01-25T11:13:51.224Z,12.20
2023-01-25T11:16:29.097Z,10.98
2023-01-25T11:18:55.879Z,12.35
2023-01-25T11:21:23.815Z,10.75
2023-01-25T11:24:00.473Z,11.70
2023-01-25T11:26:25.286Z,11.35
2023-01-25T11:28:49.884Z,11.52
2023-01-25T11:31:16.023Z,12.07
2023-01-25T11:33:43.681Z,10.30
2023-01-25T11:36:23.984Z,11.07
2023-01-25T11:39:16.071Z,10.15
2023-01-25T11:42:00.588Z,9.30
2023-01-25T11:44:48.548Z,9.63
2023-01-25T11:47:27.435Z,9.32
2023-01-25T11:49:59.456Z,9.02
2023-01-25T11:52:32.543Z,11.02
2023-01-25T11:55:11.314Z,10.07
2023-01-25T11:57:47.584Z,12.80
2023-01-25T12:00:36.687Z,11.07
2023-01-25T12:03:49.164Z,11.50
2023-01-25T12:06:19.498Z,12.23
2023-01-25T12:09:01.580Z,12.45
2023-01-25T12:11:42.140Z,14.25
2023-01-25T12:14:14.399Z,12.18
2023-01-25T12:17:08.420Z,13.30
2023-01-25T12:19:44.715Z,12.20
2023-01-25T12:22:37.532Z,11.48
2023-01-25T12:25:08.891Z,11.48
2023-01-25T12:27:51.684Z,10.52
2023-01-25T12:30:27.232Z,9.45
2023-01-25T12:33:09.011Z,11.13
2023-01-25T12:35:41.264Z,13.40
2023-01-25T12:38:12.710Z,12.80
2023-01-25T12:40:46.152Z,11.68
2023-01-25T12:43:17.944Z,9.48
2023-01-25T12:45:45.234Z,11.10
2023-01-25T12:48:18.404Z,12.00
2023-01-25T12:50:48.432Z,9.38
2023-01-25T12:53:23.695Z,11.27
2023-01-25T12:55:48.939Z,11.25
2023-01-25T12:58:37.010Z,10.98
2023-01-25T13:01:10.752Z,10.57
2023-01-25T13:03:41.907Z,11.02
2023-01-25T13:06:16.454Z,10.65
2023-01-25T13:08:49.822Z,10.30
2023-01-25T13:11:20.829Z,12.05
2023-01-25T13:13:46.988Z,10.20
2023-01-25T13:16:37.768Z,11.82
2023-01-25T13:19:02.984Z,9.70
2023-01-25T13:21:45.073Z,9.88
2023-01-25T13:24:21.427Z,9.90
2023-01-25T13:27:05.332Z,12.98
2023-01-25T13:30:03.403Z,12.93
2023-01-25T13:32:56.495Z,11.70
2023-01-25T13:35:43.430Z,10.70
2023-01-25T13:38:31.687Z,11.82
2023-01-25T13:41:24.206Z,12.20
2023-01-25T13:44:09.245Z,11.35
2023-01-25T13:46:35.109Z,10.80
2023-01-25T13:49:05.423Z,8.75
2023-01-25T13:51:36.171Z,11.00
2023-01-25T13:54:01.387Z,10.13
2023-01-25T13:56:35.159Z,10.82
2023-01-25T13:59:04.973Z,10.50
2023-01-25T14:01:32.964Z,9.50
2023-01-25T14:04:02.155Z,10.05
2023-01-25T14:06:28.945Z,10.32
2023-01-25T14:08:55.118Z,11.80
2023-01-25T14:11:21.544Z,10.07
2023-01-25T14:13:58.372Z,9.80
2023-01-25T14:16:22.968Z,9.85
2023-01-25T14:18:47.455Z,10.07
2023-01-25T14:21:18.334Z,10.40
2023-01-25T14:23:42.927Z,12.05
2023-01-25T14:26:21.473Z,8.05
2023-01-25T14:28:59.008Z,10.23
2023-01-25T14:31:36.993Z,10.32
2023-01-25T14:34:04.352Z,10.05
2023-01-25T14:36:37.393Z,10.20
2023-01-25T14:39:04.774Z,10.05
2023-01-25T14:41:33.888Z,10.15
2023-01-25T14:44:00.485Z,10.88
2023-01-25T14:46:28.092Z,10.65
2023-01-25T14:48:53.960Z,10.02
2023-01-25T14:51:26.110Z,11.40
2023-01-25T14:53:58.066Z,13.82
2023-01-25T14:56:32.178Z,11.75
2023-01-25T14:58:59.969Z,10.10
2023-01-25T15:01:33.291Z,10.50
2023-01-25T15:03:57.927Z,12.10
2023-01-25T15:06:22.478Z,15.90
2023-01-25T15:08:47.767Z,12.40
2023-01-25T15:11:49.005Z,14.45
2023-01-25T15:14:19.187Z,13.98
2023-01-25T15:16:43.707Z,17.80
2023-01-25T15:19:26.759Z,11.20
2023-01-25T15:21:51.544Z,11.65
2023-01-25T15:24:15.964Z,10.43
2023-01-25T15:26:42.793Z,12.40
2023-01-25T15:29:14.811Z,11.75
2023-01-25T15:31:39.770Z,16.13
2023-01-25T15:34:05.311Z,12.43
2023-01-25T15:36:30.805Z,12.23
2023-01-25T15:38:55.694Z,13.15
2023-01-25T15:41:20.268Z,10.95
2023-01-25T15:43:46.266Z,12.25
2023-01-25T15:46:17.824Z,13.73
2023-01-25T15:48:44.148Z,12.50
2023-01-25T15:51:08.903Z,12.50
2023-01-25T15:53:33.389Z,12.40
2023-01-25T15:56:01.322Z,13.95
2023-01-25T15:58:28.860Z,13.25
2023-01-25T16:00:54.628Z,13.25
2023-01-25T16:03:26.040Z,15.10
2023-01-25T16:05:52.166Z,12.25
2023-01-25T16:08:18.282Z,13.25
2023-01-25T16:10:43.018Z,14.25
2023-01-25T16:13:09.692Z,14.68
2023-01-25T16:15:34.394Z,13.88
2023-01-25T16:18:00.317Z,14.63
2023-01-25T16:20:24.870Z,13.45
2023-01-25T16:22:49.470Z,12.57
2023-01-25T16:25:13.991Z,12.93
2023-01-25T16:27:38.696Z,13.88
2023-01-25T16:30:03.932Z,13.77
2023-01-25T16:32:28.959Z,13.27
2023-01-25T16:34:54.818Z,13.32
2023-01-25T16:37:19.627Z,14.05
2023-01-25T16:39:44.293Z,13.68
2023-01-25T16:42:13.426Z,12.45
2023-01-25T16:44:37.877Z,12.40
2023-01-25T16:47:03.877Z,19.67
2023-01-25T16:49:30.488Z,23.70
2023-01-25T16:51:56.733Z,15.13
2023-01-25T16:54:21.767Z,12.25
2023-01-25T16:56:46.331Z,13.25
2023-01-25T16:59:11.893Z,13.20
2023-01-25T17:01:38.439Z,13.35
2023-01-25T17:04:02.927Z,12.38
2023-01-25T17:06:29.213Z,13.05
2023-01-25T17:08:58.833Z,13.30
2023-01-25T17:11:23.421Z,12.63
2023-01-25T17:13:50.391Z,13.85
2023-01-25T17:16:14.995Z,14.07
2023-01-25T17:18:40.032Z,13.77
2023-01-25T17:21:06.870Z,14.95
2023-01-25T17:23:33.404Z,15.43
2023-01-25T17:25:59.170Z,14.18
2023-01-25T17:28:24.235Z,14.68
2023-01-25T17:30:54.082Z,16.05
2023-01-25T17:33:19.304Z,14.88
2023-01-25T17:35:43.680Z,14.88
2023-01-25T17:38:09.540Z,12.95
2023-01-25T17:40:35.893Z,14.07
2023-01-25T17:43:01.752Z,13.73
2023-01-25T17:45:27.404Z,13.98
2023-01-25T17:47:51.806Z,15.60
2023-01-25T17:50:16.449Z,27.35
2023-01-25T17:52:40.855Z,32.20
2023-01-25T17:55:06.885Z,23.00
2023-01-25T17:57:31.644Z,16.63
2023-01-25T17:59:57.849Z,15.75
2023-01-25T18:02:22.931Z,18.05
2023-01-25T18:04:47.266Z,19.17
2023-01-25T18:07:11.752Z,16.42
2023-01-25T18:09:36.151Z,14.90
2023-01-25T18:12:00.649Z,15.90
2023-01-25T18:14:25.302Z,15.43
2023-01-25T18:16:51.636Z,13.68
2023-01-25T18:19:16.218Z,12.77
2023-01-25T18:21:42.369Z,13.57
2023-01-25T18:24:25.993Z,16.35
2023-01-25T18:26:52.681Z,15.45
2023-01-25T18:29:37.642Z,13.48
2023-01-25T18:32:03.569Z,13.82
2023-01-25T18:34:28.005Z,14.68
2023-01-25T18:36:52.525Z,15.18
2023-01-25T18:39:16.942Z,14.25
2023-01-25T18:41:42.846Z,14.65
2023-01-25T18:44:08.871Z,16.20
2023-01-25T18:46:33.504Z,15.75
2023-01-25T18:48:59.358Z,14.98
2023-01-25T18:51:23.903Z,16.70
2023-01-25T18:53:48.424Z,14.93
2023-01-25T18:56:14.591Z,16.98
2023-01-25T18:58:41.082Z,15.93
2023-01-25T19:01:09.434Z,17.48
2023-01-25T19:03:34.382Z,15.93
2023-01-25T19:06:00.999Z,16.50
2023-01-25T19:08:26.586Z,16.35
2023-01-25T19:10:51.041Z,15.82
2023-01-25T19:13:15.667Z,15.02
2023-01-25T19:15:40.135Z,15.90
2023-01-25T19:18:04.993Z,15.23
2023-01-25T19:20:30.450Z,15.23
2023-01-25T19:22:56.723Z,16.30
2023-01-25T19:25:22.200Z,17.75
2023-01-25T19:27:46.747Z,16.33
2023-01-25T19:30:12.520Z,26.88
2023-01-25T19:32:37.227Z,26.23
2023-01-25T19:35:02.957Z,22.70
2023-01-25T19:37:28.199Z,16.65
2023-01-25T19:39:54.245Z,15.48
2023-01-25T19:42:18.844Z,16.95
2023-01-25T19:44:43.506Z,16.73
2023-01-25T19:47:08.165Z,14.55
2023-01-25T19:49:32.617Z,15.05
2023-01-25T19:51:57.288Z,14.98
2023-01-25T19:54:23.242Z,14.80
2023-01-25T19:56:50.291Z,15.55
2023-01-25T19:59:16.403Z,16.88
2023-01-25T20:01:44.200Z,15.35
2023-01-25T20:04:09.262Z,16.73
2023-01-25T20:06:34.508Z,14.30
2023-01-25T20:08:58.999Z,14.27
2023-01-25T20:11:25.906Z,17.88
2023-01-25T20:13:53.505Z,16.65
2023-01-25T20:16:19.464Z,14.00
2023-01-25T20:18:44.981Z,15.35
2023-01-25T20:21:12.190Z,14.65
2023-01-25T20:23:39.046Z,14.10
2023-01-25T20:26:05.787Z,14.70
2023-01-25T20:28:31.055Z,17.63
2023-01-25T20:30:58.515Z,18.27
2023-01-25T20:33:23.106Z,18.35
2023-01-25T20:35:47.695Z,18.77
2023-01-25T20:38:12.711Z,17.75
2023-01-25T20:40:37.473Z,17.65
2023-01-25T20:43:02.137Z,15.77
2023-01-25T20:45:26.950Z,18.50
2023-01-25T20:47:53.189Z,22.05
2023-01-25T20:50:18.198Z,18.30
2023-01-25T20:52:42.596Z,18.33
2023-01-25T20:55:07.793Z,18.08
2023-01-25T20:57:32.543Z,18.73
2023-01-25T20:59:56.959Z,16.95
2023-01-25T21:02:21.403Z,15.32
2023-01-25T21:04:47.769Z,17.00
2023-01-25T21:07:12.269Z,16.45
2023-01-25T21:09:37.098Z,16.23
2023-01-25T21:12:01.543Z,15.45
2023-01-25T21:14:26.123Z,18.95
2023-01-25T21:16:50.576Z,16.13
2023-01-25T21:19:15.439Z,13.75
2023-01-25T21:21:41.753Z,16.50
2023-01-25T21:24:07.513Z,16.02
2023-01-25T21:26:34.100Z,16.67
2023-01-25T21:29:00.772Z,18.27
2023-01-25T21:31:27.097Z,18.67
2023-01-25T21:33:51.710Z,18.35
2023-01-25T21:36:17.381Z,21.10
2023-01-25T21:38:44.887Z,18.30
2023-01-25T21:41:13.128Z,16.83
2023-01-25T21:43:52.066Z,18.08
2023-01-25T21:46:25.495Z,20.43
2023-01-25T21:49:07.585Z,22.42
2023-01-25T21:51:39.615Z,18.23
2023-01-25T21:54:06.158Z,20.85
2023-01-25T21:56:30.995Z,20.75
2023-01-25T21:58:55.508Z,19.05
2023-01-25T22:01:20.243Z,17.52
2023-01-25T22:03:48.826Z,17.23
2023-01-25T22:06:13.156Z,20.13
2023-01-25T22:08:37.787Z,20.10
2023-01-25T22:11:08.455Z,18.77
2023-01-25T22:13:33.003Z,20.13
2023-01-25T22:16:01.194Z,18.02
2023-01-25T22:18:25.921Z,20.30
2023-01-25T22:20:56.943Z,21.45
2023-01-25T22:23:21.596Z,17.05
2023-01-25T22:25:47.504Z,18.13
2023-01-25T22:28:15.614Z,17.63
2023-01-25T22:30:40.104Z,17.92
2023-01-25T22:33:04.570Z,19.10
2023-01-25T22:35:29.048Z,19.88
2023-01-25T22:37:53.455Z,17.45
2023-01-25T22:40:18.125Z,18.58
2023-01-25T22:42:42.861Z,20.15
2023-01-25T22:45:10.588Z,16.95
2023-01-25T22:47:35.165Z,18.45
2023-01-25T22:49:59.682Z,16.42
2023-01-25T22:52:24.275Z,16.63
2023-01-25T22:54:50.348Z,17.42
2023-01-25T22:57:15.005Z,16.27
2023-01-25T22:59:39.500Z,16.75
2023-01-25T23:02:05.447Z,16.75
2023-01-25T23:04:30.721Z,16.40
2023-01-25T23:07:12.839Z,17.40
2023-01-25T23:09:37.563Z,16.13
2023-01-25T23:12:02.074Z,15.85
2023-01-25T23:14:44.128Z,17.67
2023-01-25T23:17:27.034Z,18.20
2023-01-25T23:19:51.809Z,17.38
2023-01-25T23:22:16.615Z,16.95
2023-01-25T23:24:41.596Z,16.75
2023-01-25T23:27:06.281Z,17.27
2023-01-25T23:29:30.795Z,17.23
2023-01-25T23:31:55.278Z,16.30
2023-01-25T23:34:21.266Z,17.85
2023-01-25T23:36:45.780Z,17.85
2023-01-25T23:39:13.611Z,17.80
2023-01-25T23:41:38.227Z,16.25
2023-01-25T23:44:02.740Z,17.40
2023-01-25T23:46:28.506Z,17.45
2023-01-25T23:48:53.135Z,16.73
2023-01-25T23:51:20.125Z,19.63
2023-01-25T23:53:44.992Z,16.77
2023-01-25T23:56:13.370Z,17.73
2023-01-25T23:58:39.295Z,17.15
